El Dorado, Georgia
Current Conditions -  °F | °C
As of 8:30 AM on Saturday 25 Oct 2014 (Local Time) from KTMA Reporting Station
Clear Clear  
Wind Chill: 50°   Ceiling: Unl
Heat Index: 50°   Visibility: 10mi
Dew Point: 49°   Wind: 3mph
Humidity: 95%   Direction: 320°NW
Pressure: 30.03"   Gusts: NA
Location:  31.2647°N, 83.4365°W
Report Text: KTMA 251230Z AUTO 32003KT 10SM CLR 10/09 A3003 RMK AO2 T00990092
Loading
Personal Weather Stations






























Interactive Weather Map
Tropical Storm Tracking
New forecast layout! Learn more

10-Day Weather Forecast

Advertisements
Track Severe Weather on mobile